TDPD/DOM METAR and TAF weather

Enter ICAO airport designator
Station Type Date Time Source
TDPD METAR 2019/12/08 00:00 UTC NOAA

TDPD 080000Z 10004KT 9999 SCT016 26/22 Q1015


Station Type Date Time Source
TDPD Decoded METAR 2019/12/08 00:00 UTC NOAA

Melville Hall Airport, Dominica (TDPD) 15-32N 061-18W 14M
Dec 07, 2019 - 07:00 PM EST / 2019.12.08 0000 UTC
Wind: from the E (100 degrees) at 5 MPH (4 KT):0
Visibility: greater than 7 mile(s):0
Sky conditions: partly cloudy
Temperature: 78 F (26 C)
Dew Point: 71 F (22 C)
Relative Humidity: 78%
Pressure (altimeter): 29.97 in. Hg (1015 hPa)
ob: TDPD 080000Z 10004KT 9999 SCT016 26/22 Q1015
cycle: 0

Station Type Date Time Source
TDPD TAF 2019/12/08 06:36 UTC NOAA

TAF TDPD 080500Z 0806/0906 08014KT 9999 SCT018
TEMPO 0820/0824 SHRA BKN014

Example: see airport list